Time;durP1;ratioP1;P1;durP2;ratioP2;P2;SDS_P1;SDS_P2;PMS_P1;PMS_P2;Temp;Humidity;BMP_temperature;BMP_pressure;BME280_temperature;BME280_humidity;BME280_pressure;Samples;Min_cycle;Max_cycle;Signal;HPM_P1;HPM_P2
2023/07/26 00:01:12;;;;;;;4.88;2.90;;;22.20;55.40;;;;;;5070998;28;20218;-55
2023/07/26 00:03:39;;;;;;;5.28;2.88;;;22.20;55.40;;;;;;5070781;28;20187;-57
2023/07/26 00:06:07;;;;;;;4.97;3.25;;;22.20;55.40;;;;;;5070790;28;20268;-53
2023/07/26 00:08:34;;;;;;;4.78;2.72;;;22.20;55.50;;;;;;5070613;28;20216;-55
2023/07/26 00:11:02;;;;;;;6.75;3.10;;;22.20;55.40;;;;;;5070872;28;20357;-53
2023/07/26 00:13:29;;;;;;;6.38;3.30;;;22.20;55.50;;;;;;5070601;28;20186;-55
2023/07/26 00:15:58;;;;;;;7.35;3.22;;;22.20;55.50;;;;;;5070711;28;20280;-55
2023/07/26 00:18:25;;;;;;;7.13;3.17;;;22.20;55.40;;;;;;5070396;28;20240;-57
2023/07/26 00:20:53;;;;;;;6.38;2.88;;;22.20;55.40;;;;;;5070513;28;20218;-57
2023/07/26 00:23:20;;;;;;;5.88;3.10;;;22.20;55.40;;;;;;5070478;28;20187;-54
2023/07/26 00:25:48;;;;;;;4.97;3.03;;;22.20;55.50;;;;;;5070411;28;20275;-57
2023/07/26 00:28:15;;;;;;;5.38;2.67;;;22.20;55.50;;;;;;5070188;28;20657;-57
2023/07/26 00:30:42;;;;;;;7.00;3.15;;;22.20;55.50;;;;;;5070091;28;20266;-59
2023/07/26 00:33:12;;;;;;;6.78;3.30;;;22.20;55.50;;;;;;5070507;28;20229;-55
2023/07/26 00:35:42;;;;;;;6.90;3.08;;;22.20;55.50;;;;;;5070364;28;20215;-57
2023/07/26 00:38:10;;;;;;;6.90;3.28;;;22.20;55.50;;;;;;5069858;28;20198;-56
2023/07/26 00:40:38;;;;;;;7.10;3.42;;;22.20;55.50;;;;;;5070262;28;20259;-56
2023/07/26 00:43:05;;;;;;;6.28;3.00;;;22.20;55.50;;;;;;5070064;28;20187;-58
2023/07/26 00:45:36;;;;;;;4.68;2.65;;;22.20;55.50;;;;;;5070042;28;20242;-58
2023/07/26 00:48:05;;;;;;;4.85;3.00;;;22.10;55.30;;;;;;5069936;28;20277;-57
2023/07/26 00:50:34;;;;;;;6.13;3.00;;;22.20;55.50;;;;;;5070137;28;20242;-58
2023/07/26 00:53:02;;;;;;;5.75;3.35;;;22.10;55.40;;;;;;5069974;28;20194;-59
2023/07/26 00:55:30;;;;;;;8.02;3.00;;;22.10;55.30;;;;;;5070035;28;20264;-58
2023/07/26 00:57:58;;;;;;;5.05;2.70;;;22.10;56.00;;;;;;5069826;28;20187;-58
2023/07/26 01:00:25;;;;;;;7.55;2.95;;;22.10;55.30;;;;;;5069925;28;20250;-57
2023/07/26 01:02:52;;;;;;;5.13;2.75;;;22.10;55.30;;;;;;5069881;28;20191;-57
2023/07/26 01:05:22;;;;;;;5.25;2.63;;;22.10;55.30;;;;;;5069174;28;20238;-55
2023/07/26 01:08:01;;;;;;;4.60;2.60;;;22.10;55.30;;;;;;5063957;28;20196;-57
2023/07/26 01:10:36;;;;;;;8.43;3.33;;;22.10;55.30;;;;;;5049856;28;20222;-57
2023/07/26 01:13:13;;;;;;;6.35;3.03;;;22.10;55.30;;;;;;5049641;28;20191;-57
2023/07/26 01:15:43;;;;;;;5.65;2.80;;;22.10;55.30;;;;;;5049602;28;20306;-57
2023/07/26 01:18:13;;;;;;;7.95;3.08;;;22.10;55.30;;;;;;5049564;28;20856;-57
2023/07/26 01:20:40;;;;;;;6.45;2.90;;;22.10;55.30;;;;;;5049753;28;20219;-57
2023/07/26 01:23:09;;;;;;;5.78;3.15;;;22.10;55.40;;;;;;5049637;28;20183;-58
2023/07/26 01:25:37;;;;;;;5.95;2.85;;;22.10;55.30;;;;;;5049605;28;20234;-55
2023/07/26 01:30:47;;;;;;;6.03;3.20;;;22.10;55.30;;;;;;5048364;28;20245;-57
2023/07/26 01:33:15;;;;;;;5.72;2.88;;;22.10;55.30;;;;;;5049769;28;20294;-53
2023/07/26 01:35:43;;;;;;;4.75;3.22;;;22.10;55.30;;;;;;5049586;28;20219;-55
2023/07/26 01:38:14;;;;;;;6.95;3.20;;;22.00;55.20;;;;;;5049434;28;20973;-58
2023/07/26 01:40:43;;;;;;;5.03;2.60;;;22.00;55.20;;;;;;5049564;28;20220;-55
2023/07/26 01:43:10;;;;;;;7.20;3.20;;;22.00;55.20;;;;;;5049465;28;20184;-57
2023/07/26 01:45:38;;;;;;;6.68;2.70;;;22.00;55.20;;;;;;5049395;28;20318;-57
2023/07/26 01:48:06;;;;;;;6.78;2.97;;;22.00;55.20;;;;;;5049300;28;20283;-57
2023/07/26 01:50:33;;;;;;;8.80;3.25;;;22.00;55.20;;;;;;5050519;28;20227;-57
2023/07/26 01:53:01;;;;;;;4.43;2.88;;;22.00;55.20;;;;;;5053251;28;20187;-55
2023/07/26 01:55:30;;;;;;;5.85;2.95;;;22.00;55.20;;;;;;5053347;28;20226;-55
2023/07/26 01:57:57;;;;;;;4.85;2.90;;;22.00;55.20;;;;;;5053096;28;20192;-56
2023/07/26 02:00:25;;;;;;;4.60;2.90;;;22.00;55.20;;;;;;5053228;28;20234;-56
2023/07/26 02:02:53;;;;;;;5.95;2.97;;;22.00;55.20;;;;;;5053091;28;20274;-56
2023/07/26 02:05:29;;;;;;;5.60;2.95;;;22.00;55.20;;;;;;5053048;28;20239;-58
2023/07/26 02:07:57;;;;;;;4.75;2.80;;;22.00;55.20;;;;;;5052924;28;20191;-57
2023/07/26 02:10:24;;;;;;;4.05;2.53;;;22.00;55.20;;;;;;5053055;28;20215;-58
2023/07/26 02:12:53;;;;;;;5.72;2.67;;;22.00;55.20;;;;;;5052899;28;20191;-56
2023/07/26 02:15:21;;;;;;;4.47;2.83;;;22.00;55.20;;;;;;5053007;28;20302;-56
2023/07/26 02:17:49;;;;;;;4.97;2.83;;;22.00;55.20;;;;;;5052725;28;20222;-57
2023/07/26 02:20:16;;;;;;;5.35;3.08;;;22.00;55.20;;;;;;5052815;28;20216;-56
2023/07/26 02:22:44;;;;;;;5.05;2.85;;;22.00;55.20;;;;;;5052772;28;20226;-56
2023/07/26 02:25:12;;;;;;;5.25;2.90;;;22.00;55.20;;;;;;5052657;28;20219;-58
2023/07/26 02:27:40;;;;;;;5.60;3.20;;;22.00;55.20;;;;;;5052579;28;20196;-57
2023/07/26 02:30:10;;;;;;;5.25;2.85;;;21.90;55.10;;;;;;5052330;28;20220;-55
2023/07/26 02:32:37;;;;;;;3.67;2.60;;;22.00;55.20;;;;;;5052766;28;20192;-56
2023/07/26 02:35:05;;;;;;;5.68;3.17;;;22.00;55.20;;;;;;5052632;28;20229;-55
2023/07/26 02:37:33;;;;;;;5.57;2.60;;;22.00;55.20;;;;;;5052418;28;20270;-53
2023/07/26 02:40:00;;;;;;;6.22;3.00;;;22.00;55.80;;;;;;5052410;28;20285;-58
2023/07/26 02:42:28;;;;;;;5.35;2.65;;;22.00;55.20;;;;;;5052371;28;20196;-55
2023/07/26 02:44:56;;;;;;;4.50;2.70;;;22.00;55.20;;;;;;5052373;28;20230;-56
2023/07/26 02:47:25;;;;;;;4.85;2.83;;;21.90;55.10;;;;;;5052291;28;20198;-57
2023/07/26 02:49:53;;;;;;;6.60;2.67;;;22.00;55.10;;;;;;5052315;28;20231;-55
2023/07/26 02:52:20;;;;;;;4.43;2.78;;;22.00;55.10;;;;;;5052197;28;20204;-57
2023/07/26 02:54:47;;;;;;;3.90;2.38;;;21.90;55.10;;;;;;5052177;28;20737;-58
2023/07/26 02:57:15;;;;;;;5.70;3.20;;;21.90;55.00;;;;;;5052085;28;20255;-57
2023/07/26 02:59:42;;;;;;;4.78;2.80;;;21.90;55.00;;;;;;5052119;28;20294;-57
2023/07/26 03:02:10;;;;;;;6.03;2.97;;;21.90;55.00;;;;;;5051946;28;20200;-56
2023/07/26 03:04:38;;;;;;;4.45;2.75;;;21.90;55.00;;;;;;5051906;28;20215;-55
2023/07/26 03:07:06;;;;;;;6.93;3.10;;;21.90;55.00;;;;;;5051818;28;20216;-58
2023/07/26 03:09:33;;;;;;;6.22;2.90;;;21.90;55.00;;;;;;5051897;28;20187;-58
2023/07/26 03:12:01;;;;;;;5.22;2.80;;;21.90;55.00;;;;;;5052138;28;20286;-54
2023/07/26 03:14:29;;;;;;;5.15;2.83;;;21.90;55.00;;;;;;5051730;28;20325;-54
2023/07/26 03:16:56;;;;;;;4.57;2.88;;;21.90;55.00;;;;;;5051685;28;20194;-52
2023/07/26 03:19:23;;;;;;;6.82;2.70;;;21.90;55.00;;;;;;5051612;28;20188;-54
2023/07/26 03:21:52;;;;;;;5.47;3.25;;;21.90;55.00;;;;;;5051693;28;20184;-55
2023/07/26 03:24:21;;;;;;;5.32;2.90;;;21.90;55.00;;;;;;5051548;28;20278;-56
2023/07/26 03:26:48;;;;;;;4.82;2.45;;;21.90;55.00;;;;;;5051381;28;20310;-56
2023/07/26 03:29:16;;;;;;;5.85;2.85;;;21.90;55.00;;;;;;5051531;28;20195;-55
2023/07/26 03:31:43;;;;;;;3.90;2.63;;;21.90;55.00;;;;;;5051435;28;20231;-55
2023/07/26 03:34:10;;;;;;;4.00;2.72;;;21.80;54.90;;;;;;5051643;28;20285;-55
2023/07/26 03:36:38;;;;;;;5.22;2.75;;;21.90;55.00;;;;;;5051532;28;20215;-56
2023/07/26 03:39:07;;;;;;;4.38;2.58;;;21.90;55.00;;;;;;5051279;28;20191;-55
2023/07/26 03:41:35;;;;;;;3.90;2.58;;;21.90;55.00;;;;;;5051448;28;20299;-53
2023/07/26 03:44:02;;;;;;;5.22;2.80;;;21.90;55.00;;;;;;5051207;28;20266;-56
2023/07/26 03:46:30;;;;;;;5.13;2.83;;;21.90;55.00;;;;;;5051280;28;20235;-55
2023/07/26 03:48:57;;;;;;;5.75;2.67;;;21.80;54.90;;;;;;5051074;28;20275;-53
2023/07/26 03:51:24;;;;;;;5.88;2.75;;;21.80;54.80;;;;;;5051283;28;20216;-55
2023/07/26 03:53:52;;;;;;;4.05;2.47;;;21.90;55.00;;;;;;5051068;28;20274;-54
2023/07/26 03:56:21;;;;;;;4.95;2.58;;;21.80;54.80;;;;;;5051085;28;20215;-52
2023/07/26 03:58:48;;;;;;;6.85;2.80;;;21.80;54.80;;;;;;5050839;28;20195;-53
2023/07/26 04:01:16;;;;;;;3.85;2.35;;;21.90;55.00;;;;;;5050985;28;20229;-56
2023/07/26 04:03:43;;;;;;;6.25;3.10;;;21.80;54.80;;;;;;5050950;28;20261;-54
2023/07/26 04:06:12;;;;;;;4.88;2.55;;;21.80;54.80;;;;;;5050799;28;20230;-56
2023/07/26 04:08:40;;;;;;;4.20;2.85;;;21.80;54.80;;;;;;5050665;28;20196;-54
2023/07/26 04:11:08;;;;;;;4.95;2.85;;;21.80;54.80;;;;;;5050807;28;20215;-54
2023/07/26 04:13:36;;;;;;;4.20;2.50;;;21.80;54.80;;;;;;5050190;28;20192;-53
2023/07/26 04:16:14;;;;;;;5.18;2.58;;;21.80;54.80;;;;;;5050690;28;20844;-55
2023/07/26 04:18:41;;;;;;;5.78;3.03;;;21.80;54.80;;;;;;5050515;28;20183;-56
2023/07/26 04:21:13;;;;;;;5.05;2.75;;;21.80;55.50;;;;;;5050583;28;20226;-53
2023/07/26 04:23:41;;;;;;;5.68;2.78;;;21.80;54.80;;;;;;5050504;28;20192;-54
2023/07/26 04:26:09;;;;;;;4.00;2.30;;;21.80;54.80;;;;;;5050406;28;20231;-55
2023/07/26 04:28:38;;;;;;;4.90;2.67;;;21.80;54.80;;;;;;5050290;28;20291;-54
2023/07/26 04:31:05;;;;;;;4.38;2.63;;;21.80;54.80;;;;;;5050099;28;20314;-54
2023/07/26 04:33:32;;;;;;;3.95;2.40;;;21.80;54.80;;;;;;5050606;28;20199;-53
2023/07/26 04:36:00;;;;;;;5.18;2.90;;;21.80;54.80;;;;;;5050417;28;20227;-55
2023/07/26 04:38:27;;;;;;;4.30;2.65;;;21.80;54.80;;;;;;5050176;28;20242;-55
2023/07/26 04:40:55;;;;;;;4.13;2.55;;;21.80;54.80;;;;;;5050251;28;20220;-55
2023/07/26 04:43:22;;;;;;;4.63;2.60;;;21.80;54.80;;;;;;5050127;28;20211;-53
2023/07/26 04:45:53;;;;;;;3.63;2.40;;;21.80;54.80;;;;;;5050077;28;20224;-53
2023/07/26 04:48:21;;;;;;;4.57;2.75;;;21.80;54.80;;;;;;5050025;28;20188;-55
2023/07/26 04:50:52;;;;;;;6.10;2.60;;;21.80;54.80;;;;;;5050057;28;20306;-55
2023/07/26 04:53:19;;;;;;;5.63;2.70;;;21.80;54.70;;;;;;5050082;28;20198;-55
2023/07/26 04:55:48;;;;;;;4.82;2.67;;;21.80;54.70;;;;;;5049980;28;20215;-55
2023/07/26 04:58:15;;;;;;;4.90;2.67;;;21.80;54.70;;;;;;5049905;28;20283;-52
2023/07/26 05:00:43;;;;;;;4.55;2.42;;;21.80;54.70;;;;;;5049892;28;20303;-53
2023/07/26 05:03:12;;;;;;;4.88;2.40;;;21.80;54.70;;;;;;5049800;28;20199;-54
2023/07/26 05:05:40;;;;;;;7.60;3.13;;;21.80;54.70;;;;;;5049835;28;20219;-54
2023/07/26 05:08:08;;;;;;;3.72;2.38;;;21.80;54.70;;;;;;5049638;28;20220;-55
2023/07/26 05:10:36;;;;;;;5.63;2.70;;;21.80;54.70;;;;;;5049782;28;20241;-58
2023/07/26 05:13:04;;;;;;;4.57;2.63;;;21.70;54.70;;;;;;5049728;28;20184;-54
2023/07/26 05:15:31;;;;;;;3.38;2.45;;;21.80;54.70;;;;;;5049740;28;20211;-55
2023/07/26 05:17:59;;;;;;;4.45;2.60;;;21.80;54.70;;;;;;5049577;28;20227;-53
2023/07/26 05:20:28;;;;;;;3.10;2.45;;;21.70;54.70;;;;;;5049675;28;20215;-53
2023/07/26 05:22:55;;;;;;;5.82;2.80;;;21.70;54.70;;;;;;5049674;28;20184;-51
2023/07/26 05:25:22;;;;;;;5.55;2.88;;;21.80;54.70;;;;;;5050385;28;20215;-53
2023/07/26 05:27:50;;;;;;;4.20;2.67;;;21.70;54.70;;;;;;5053393;28;20310;-56
2023/07/26 05:30:18;;;;;;;5.32;3.15;;;21.70;54.70;;;;;;5053494;28;20238;-56
2023/07/26 05:32:45;;;;;;;6.47;3.00;;;21.70;54.70;;;;;;5053710;28;20282;-56
2023/07/26 05:35:13;;;;;;;6.57;2.63;;;21.70;54.70;;;;;;5053767;28;20218;-56
2023/07/26 05:37:41;;;;;;;3.55;2.53;;;21.70;54.70;;;;;;5053501;28;20265;-55
2023/07/26 05:40:09;;;;;;;4.93;3.03;;;21.80;54.70;;;;;;5053515;28;20219;-54
2023/07/26 05:42:37;;;;;;;5.22;2.72;;;21.80;54.80;;;;;;5053536;28;20195;-56
2023/07/26 05:45:05;;;;;;;4.40;3.10;;;21.70;54.70;;;;;;5053517;28;20218;-53
2023/07/26 05:47:37;;;;;;;7.45;3.33;;;21.70;54.80;;;;;;5053356;28;20293;-56
2023/07/26 05:50:06;;;;;;;8.43;2.95;;;21.70;54.90;;;;;;5053411;28;20712;-55
2023/07/26 05:52:34;;;;;;;3.50;2.35;;;21.80;55.10;;;;;;5053305;28;20192;-56
2023/07/26 05:55:02;;;;;;;6.13;2.92;;;21.80;55.10;;;;;;5053216;28;20216;-54
2023/07/26 05:57:30;;;;;;;5.47;2.67;;;21.80;55.10;;;;;;5053197;28;20292;-56
2023/07/26 05:59:58;;;;;;;8.35;3.13;;;21.80;55.10;;;;;;5053116;28;20199;-58
2023/07/26 06:02:25;;;;;;;7.15;3.17;;;21.70;55.00;;;;;;5053157;28;20184;-58
2023/07/26 06:04:53;;;;;;;6.15;3.13;;;21.70;55.10;;;;;;5052976;28;20726;-54
2023/07/26 06:07:23;;;;;;;5.20;3.03;;;21.80;55.20;;;;;;5052877;28;20222;-56
2023/07/26 06:09:50;;;;;;;6.40;2.80;;;21.80;55.20;;;;;;5052939;28;20237;-56
2023/07/26 06:12:19;;;;;;;5.57;2.83;;;21.80;55.20;;;;;;5053018;28;20192;-55
2023/07/26 06:14:47;;;;;;;5.10;2.83;;;21.80;55.30;;;;;;5052784;28;20203;-56
2023/07/26 06:17:14;;;;;;;5.63;3.00;;;21.80;55.20;;;;;;5052827;28;20195;-59
2023/07/26 06:19:42;;;;;;;9.55;2.95;;;21.80;55.30;;;;;;5052735;28;20250;-54
2023/07/26 06:22:09;;;;;;;6.90;3.30;;;21.80;55.30;;;;;;5052786;28;20192;-54
2023/07/26 06:24:37;;;;;;;8.13;3.00;;;21.80;55.20;;;;;;5052677;28;20688;-58
2023/07/26 06:27:05;;;;;;;7.00;3.00;;;21.80;55.30;;;;;;5052679;28;20242;-56
2023/07/26 06:29:35;;;;;;;4.22;3.03;;;21.80;55.30;;;;;;5052700;28;20323;-56
2023/07/26 06:32:03;;;;;;;6.57;3.00;;;21.80;55.30;;;;;;5052358;28;20325;-54
2023/07/26 06:34:31;;;;;;;7.03;2.97;;;21.80;55.30;;;;;;5052828;28;20192;-56
2023/07/26 06:36:58;;;;;;;10.40;2.70;;;21.80;55.40;;;;;;5052166;28;20251;-56
2023/07/26 06:39:27;;;;;;;7.00;3.05;;;21.80;55.30;;;;;;5052450;28;20195;-56
2023/07/26 06:41:54;;;;;;;4.70;2.67;;;21.80;55.30;;;;;;5052490;28;20284;-55
2023/07/26 06:44:21;;;;;;;8.05;3.35;;;21.80;55.30;;;;;;5052344;28;20192;-55
2023/07/26 06:46:50;;;;;;;8.10;3.45;;;21.80;55.40;;;;;;5052352;28;20246;-59
2023/07/26 06:49:18;;;;;;;4.88;2.88;;;21.80;55.40;;;;;;5052277;28;20226;-57
2023/07/26 06:51:46;;;;;;;6.25;3.20;;;21.80;55.40;;;;;;5052348;28;20620;-59
2023/07/26 06:54:14;;;;;;;6.63;2.92;;;21.80;55.40;;;;;;5052206;28;20184;-59
2023/07/26 06:56:41;;;;;;;4.78;2.83;;;21.80;55.40;;;;;;5052237;28;20219;-57
2023/07/26 06:59:12;;;;;;;8.05;3.10;;;21.80;55.40;;;;;;5052058;28;20184;-52
2023/07/26 07:01:40;;;;;;;4.95;3.10;;;21.80;55.50;;;;;;5053830;28;20307;-57
2023/07/26 07:04:09;;;;;;;8.30;3.42;;;21.90;55.40;;;;;;5059211;28;20199;-55
2023/07/26 07:06:51;;;;;;;5.07;2.92;;;21.90;55.40;;;;;;5066260;28;20217;-58
2023/07/26 07:09:19;;;;;;;8.75;3.47;;;22.00;55.40;;;;;;5069016;28;20313;-59
2023/07/26 07:11:46;;;;;;;5.93;3.40;;;22.00;55.30;;;;;;5070691;28;20294;-58
2023/07/26 07:14:48;;;;;;;5.22;3.22;;;22.10;55.20;;;;;;5070454;28;20290;-56
2023/07/26 07:17:15;;;;;;;8.15;3.17;;;22.20;55.20;;;;;;5063634;28;20198;-57
2023/07/26 07:19:45;;;;;;;7.47;3.70;;;22.30;55.20;;;;;;5069919;28;20199;-56
2023/07/26 07:22:13;;;;;;;10.15;3.45;;;22.30;55.20;;;;;;5070513;28;20709;-59
2023/07/26 07:24:40;;;;;;;7.10;3.40;;;22.30;55.20;;;;;;5069344;28;20278;-57
2023/07/26 07:27:07;;;;;;;6.13;3.13;;;22.40;55.20;;;;;;5069595;28;20810;-55
2023/07/26 07:29:50;;;;;;;7.28;3.45;;;22.40;55.10;;;;;;5061493;28;20264;-58
2023/07/26 07:32:17;;;;;;;6.40;3.20;;;22.40;55.00;;;;;;5050497;28;20737;-54
2023/07/26 07:34:55;;;;;;;5.47;3.28;;;22.50;55.10;;;;;;5055521;28;20210;-59
2023/07/26 07:37:22;;;;;;;8.07;3.80;;;22.50;55.00;;;;;;5069933;28;20297;-55
2023/07/26 07:39:52;;;;;;;5.85;3.20;;;22.50;54.90;;;;;;5070000;28;20228;-58
2023/07/26 07:42:19;;;;;;;6.78;3.60;;;22.50;54.90;;;;;;5081093;28;20575;-58
2023/07/26 07:44:51;;;;;;;4.78;3.30;;;22.50;54.80;;;;;;5090257;28;20273;-56
2023/07/26 07:47:34;;;;;;;6.80;3.22;;;22.60;54.90;;;;;;5085610;28;20316;-58
2023/07/26 07:52:50;;;;;;;5.68;3.47;;;22.60;54.80;;;;;;5027323;28;20208;-56
2023/07/26 07:55:17;;;;;;;7.90;3.47;;;22.60;54.80;;;;;;5069784;28;20193;-57
2023/07/26 07:57:44;;;;;;;6.55;3.47;;;22.70;54.80;;;;;;5069845;28;20195;-56
2023/07/26 08:00:13;;;;;;;6.45;3.45;;;22.70;54.80;;;;;;5068252;28;20909;-55
2023/07/26 08:02:40;;;;;;;6.55;3.83;;;22.70;54.70;;;;;;5067287;28;20613;-56
2023/07/26 08:05:10;;;;;;;7.18;4.25;;;22.70;54.80;;;;;;5069539;28;20682;-56
2023/07/26 08:07:37;;;;;;;4.95;3.25;;;22.70;54.70;;;;;;5069363;28;20277;-56
2023/07/26 08:10:04;;;;;;;7.55;3.80;;;22.70;54.70;;;;;;5067858;28;20191;-54
2023/07/26 08:12:34;;;;;;;5.60;3.42;;;22.70;54.70;;;;;;5063100;28;20234;-55
2023/07/26 08:15:02;;;;;;;6.78;3.15;;;22.80;54.70;;;;;;5049754;28;20196;-50
2023/07/26 08:17:28;;;;;;;8.82;3.67;;;22.80;54.60;;;;;;5066310;28;20353;-53
2023/07/26 08:19:55;;;;;;;8.32;3.40;;;22.80;54.60;;;;;;5069254;28;20260;-55
2023/07/26 08:22:24;;;;;;;7.50;3.50;;;22.80;54.50;;;;;;5066556;28;20233;-59
2023/07/26 08:24:52;;;;;;;8.05;3.95;;;22.80;54.50;;;;;;5058058;28;20290;-60
2023/07/26 08:27:19;;;;;;;4.70;3.30;;;22.80;54.50;;;;;;5060844;28;20238;-66
2023/07/26 08:29:46;;;;;;;6.03;3.30;;;22.80;54.40;;;;;;5068899;28;20191;-53
2023/07/26 08:32:14;;;;;;;5.68;3.40;;;22.80;54.40;;;;;;5065395;28;20226;-55
2023/07/26 08:34:41;;;;;;;9.02;3.15;;;22.80;54.40;;;;;;5068906;28;20257;-55
2023/07/26 08:37:10;;;;;;;4.72;2.78;;;22.90;54.40;;;;;;5068951;28;20285;-56
2023/07/26 08:39:41;;;;;;;5.45;2.92;;;22.90;54.30;;;;;;5068930;28;20305;-56
2023/07/26 08:42:08;;;;;;;5.80;3.20;;;22.90;54.30;;;;;;5068748;28;20707;-55
2023/07/26 08:44:36;;;;;;;5.93;3.17;;;22.90;54.30;;;;;;5068789;28;20568;-57
2023/07/26 08:47:05;;;;;;;4.53;3.10;;;22.90;54.30;;;;;;5063875;28;20294;-54
2023/07/26 08:49:33;;;;;;;7.95;3.10;;;22.90;54.20;;;;;;5050293;28;20286;-55
2023/07/26 08:52:03;;;;;;;5.65;3.40;;;22.90;54.10;;;;;;5051862;28;20217;-55
2023/07/26 08:54:36;;;;;;;6.88;3.05;;;22.90;54.00;;;;;;5067606;28;20269;-56
2023/07/26 08:57:05;;;;;;;7.35;3.25;;;23.00;54.10;;;;;;5068124;28;20640;-55
2023/07/26 08:59:33;;;;;;;6.18;3.05;;;23.00;54.00;;;;;;5067907;28;20634;-55
2023/07/26 09:02:00;;;;;;;5.82;2.90;;;23.00;54.00;;;;;;5064709;28;20206;-56
2023/07/26 09:04:28;;;;;;;4.95;2.92;;;23.00;54.00;;;;;;5067859;28;20187;-56
2023/07/26 09:07:02;;;;;;;4.57;2.70;;;23.00;54.00;;;;;;5068556;28;20297;-54
2023/07/26 09:09:29;;;;;;;5.43;3.05;;;23.00;53.90;;;;;;5068463;28;20194;-54
2023/07/26 09:11:57;;;;;;;6.07;2.95;;;23.00;53.80;;;;;;5068250;28;20301;-53
2023/07/26 09:14:39;;;;;;;4.47;2.78;;;23.00;53.80;;;;;;5067830;28;20236;-56
2023/07/26 09:19:56;;;;;;;4.30;2.55;;;23.00;53.70;;;;;;5067427;28;20695;-56
2023/07/26 09:22:24;;;;;;;10.13;2.97;;;23.00;53.70;;;;;;5067780;28;20343;-57
2023/07/26 09:24:51;;;;;;;4.30;2.70;;;23.10;53.70;;;;;;5068597;28;20218;-54
2023/07/26 09:27:19;;;;;;;4.68;2.80;;;23.10;53.70;;;;;;5067695;28;20306;-53
2023/07/26 09:29:57;;;;;;;4.93;2.72;;;23.10;53.60;;;;;;5067669;28;20648;-55
2023/07/26 09:32:30;;;;;;;5.75;2.80;;;23.10;53.60;;;;;;5065670;28;20308;-52
2023/07/26 09:34:59;;;;;;;4.72;2.50;;;23.10;53.60;;;;;;5068622;28;20585;-52
2023/07/26 09:37:27;;;;;;;4.95;2.60;;;23.10;53.50;;;;;;5068077;28;20305;-54
2023/07/26 09:39:54;;;;;;;5.00;2.78;;;23.10;53.50;;;;;;5068362;28;20191;-56
2023/07/26 09:42:22;;;;;;;4.18;2.42;;;23.10;53.50;;;;;;5067432;28;20586;-56
2023/07/26 09:44:59;;;;;;;3.72;2.67;;;23.10;53.50;;;;;;5067550;28;20199;-55
2023/07/26 09:48:05;;;;;;;5.03;2.40;;;23.10;53.50;;;;;;5065802;28;20306;-55
2023/07/26 09:51:00;;;;;;;4.85;2.53;;;23.10;53.50;;;;;;5067220;28;20722;-53
2023/07/26 09:53:28;;;;;;;4.90;2.80;;;23.10;53.50;;;;;;5008685;28;20308;-52
2023/07/26 09:55:55;;;;;;;9.52;2.65;;;23.10;54.10;;;;;;5008302;28;20256;-54
2023/07/26 09:58:24;;;;;;;8.00;2.40;;;23.10;53.50;;;;;;5012655;28;20205;-57
2023/07/26 10:00:55;;;;;;;6.60;2.67;;;23.10;53.50;;;;;;5005204;28;20813;-54
2023/07/26 10:03:22;;;;;;;3.88;2.42;;;23.10;53.50;;;;;;5008282;28;20305;-58
2023/07/26 10:05:53;;;;;;;4.72;2.38;;;23.10;53.50;;;;;;5007956;28;20217;-56
2023/07/26 10:08:21;;;;;;;4.47;2.50;;;23.10;53.50;;;;;;5008160;28;20295;-55
2023/07/26 10:13:49;;;;;;;3.13;2.20;;;23.10;53.50;;;;;;5012452;28;20205;-55
2023/07/26 10:16:18;;;;;;;4.38;2.33;;;23.20;53.50;;;;;;5009053;28;20231;-55
2023/07/26 10:18:54;;;;;;;3.85;2.20;;;23.20;53.50;;;;;;5011965;28;20746;-57
2023/07/26 10:21:22;;;;;;;4.15;2.25;;;23.10;53.50;;;;;;5011252;28;20193;-55
2023/07/26 10:23:51;;;;;;;4.70;1.90;;;23.20;53.60;;;;;;5011723;28;20236;-56
2023/07/26 10:26:19;;;;;;;4.13;2.25;;;23.20;53.50;;;;;;5011971;28;20248;-52
2023/07/26 10:28:46;;;;;;;3.75;1.98;;;23.20;53.50;;;;;;5031422;28;20292;-54
2023/07/26 10:31:13;;;;;;;5.32;2.42;;;23.20;53.50;;;;;;5074234;28;20229;-56
2023/07/26 10:33:49;;;;;;;5.25;2.70;;;23.20;53.50;;;;;;5063996;28;20224;-56
2023/07/26 10:36:16;;;;;;;3.88;2.15;;;23.20;53.50;;;;;;5056562;28;20234;-54
2023/07/26 10:38:48;;;;;;;5.15;2.30;;;23.10;53.50;;;;;;5063017;28;20231;-57
2023/07/26 10:41:26;;;;;;;4.30;2.63;;;23.20;53.50;;;;;;5069427;28;20265;-56
2023/07/26 10:44:04;;;;;;;3.72;1.90;;;23.10;53.50;;;;;;5069551;28;20244;-56
2023/07/26 10:46:56;;;;;;;4.10;1.73;;;23.10;53.50;;;;;;5062615;28;20203;-57
2023/07/26 10:49:28;;;;;;;5.53;2.25;;;23.20;53.50;;;;;;5061544;28;20240;-57
2023/07/26 10:51:58;;;;;;;7.10;2.10;;;23.10;53.50;;;;;;5049804;28;20195;-57
2023/07/26 10:54:39;;;;;;;5.22;1.90;;;23.10;53.50;;;;;;5061260;28;20703;-57
2023/07/26 10:57:28;;;;;;;4.65;2.40;;;23.10;53.50;;;;;;5070156;28;20186;-54
2023/07/26 11:00:00;;;;;;;4.93;2.10;;;23.10;53.50;;;;;;5054782;28;20622;-59
2023/07/26 11:02:52;;;;;;;5.10;2.95;;;23.10;53.40;;;;;;5056563;28;20198;-58
2023/07/26 11:05:23;;;;;;;8.90;2.33;;;23.10;53.50;;;;;;5051801;28;20217;-60
2023/07/26 11:07:58;;;;;;;3.22;1.92;;;23.20;53.60;;;;;;5070321;28;20190;-57
2023/07/26 11:13:29;;;;;;;3.47;2.00;;;23.10;53.50;;;;;;5057012;28;20262;-53
2023/07/26 11:15:57;;;;;;;3.63;1.73;;;23.10;53.50;;;;;;5083797;28;20198;-59
2023/07/26 11:18:27;;;;;;;3.28;1.92;;;23.10;53.50;;;;;;5090453;28;20197;-57
2023/07/26 11:20:57;;;;;;;3.13;1.90;;;23.10;53.50;;;;;;5090608;28;20186;-56
2023/07/26 11:23:36;;;;;;;4.15;2.05;;;23.20;53.60;;;;;;5088838;28;20289;-56
2023/07/26 11:26:03;;;;;;;4.15;1.70;;;23.20;53.60;;;;;;5090455;28;20182;-57
2023/07/26 11:28:34;;;;;;;4.78;2.97;;;23.10;53.50;;;;;;5090046;28;20217;-55
2023/07/26 11:31:03;;;;;;;7.93;5.50;;;23.20;53.60;;;;;;5087223;28;20224;-58
2023/07/26 11:33:31;;;;;;;7.32;4.25;;;23.20;53.60;;;;;;5090302;28;20731;-57
2023/07/26 11:36:01;;;;;;;6.28;3.85;;;23.10;53.50;;;;;;5089922;28;20277;-56
2023/07/26 11:38:28;;;;;;;6.72;3.95;;;23.20;53.60;;;;;;5090277;28;20269;-56
2023/07/26 11:40:57;;;;;;;8.23;3.70;;;23.10;53.50;;;;;;5061317;28;20197;-56
2023/07/26 11:43:26;;;;;;;5.15;3.30;;;23.20;53.60;;;;;;5066308;28;20645;-58
2023/07/26 11:45:54;;;;;;;5.50;3.20;;;23.20;53.60;;;;;;5053216;28;20195;-56
2023/07/26 11:48:22;;;;;;;5.15;3.17;;;23.20;53.60;;;;;;5062483;28;20219;-57
2023/07/26 11:50:54;;;;;;;5.40;3.05;;;23.20;53.60;;;;;;5058129;28;20322;-59
2023/07/26 11:53:29;;;;;;;5.65;4.47;;;23.20;53.70;;;;;;5063572;28;20278;-57
2023/07/26 11:59:12;;;;;;;7.70;3.63;;;23.20;53.60;;;;;;5031702;28;20216;-61
2023/07/26 12:01:41;;;;;;;4.07;3.20;;;23.20;53.60;;;;;;5053271;28;20291;-60
2023/07/26 12:07:11;;;;;;;10.35;3.97;;;23.30;53.70;;;;;;5003585;28;20204;-57
2023/07/26 12:09:57;;;;;;;6.97;3.83;;;23.30;53.70;;;;;;5012688;28;20355;-63
2023/07/26 12:12:25;;;;;;;6.97;3.85;;;23.20;53.70;;;;;;5012303;28;20213;-57
2023/07/26 12:15:08;;;;;;;29.92;24.13;;;23.30;53.90;;;;;;5004357;28;20308;-69
2023/07/26 12:17:36;;;;;;;29.42;23.25;;;23.30;54.00;;;;;;4972181;28;20211;-62
2023/07/26 12:21:01;;;;;;;;;;;;;;;;;;;;;
2023/07/26 12:23:52;;;;;;;18.73;14.48;;;23.30;54.00;;;;;;5012926;28;20223;-57
2023/07/26 12:26:23;;;;;;;29.10;12.35;;;23.40;54.10;;;;;;4991904;28;20313;-63
2023/07/26 12:28:54;;;;;;;18.77;10.63;;;23.40;54.10;;;;;;4985637;28;20247;-60
2023/07/26 12:34:06;;;;;;;15.20;8.93;;;23.40;54.10;;;;;;5015462;28;20217;-61
2023/07/26 12:36:47;;;;;;;10.55;7.95;;;23.50;54.20;;;;;;5016228;28;20208;-60
2023/07/26 12:39:15;;;;;;;10.13;6.82;;;23.50;54.10;;;;;;5019403;28;20233;-58
2023/07/26 12:42:02;;;;;;;10.32;6.50;;;23.50;54.10;;;;;;5024274;28;20301;-56
2023/07/26 12:47:38;;;;;;;11.52;7.70;;;23.60;54.00;;;;;;5006622;28;20204;-64
2023/07/26 12:50:11;;;;;;;8.90;6.25;;;23.70;54.00;;;;;;5005979;28;20229;-54
2023/07/26 12:55:19;;;;;;;9.63;5.90;;;23.70;54.00;;;;;;5003396;28;20302;-67
2023/07/26 12:57:56;;;;;;;7.18;5.35;;;23.80;54.10;;;;;;5005943;28;20745;-62
2023/07/26 13:00:24;;;;;;;7.95;5.15;;;23.70;53.90;;;;;;5005297;28;20224;-58
2023/07/26 13:02:51;;;;;;;8.07;4.70;;;23.80;54.00;;;;;;5006347;28;20205;-59
2023/07/26 13:05:27;;;;;;;5.45;4.00;;;23.80;54.00;;;;;;5005277;28;20221;-61
2023/07/26 13:11:46;;;;;;;7.07;3.92;;;23.80;54.00;;;;;;5003694;28;20739;-61
2023/07/26 13:14:24;;;;;;;9.05;4.25;;;23.90;54.10;;;;;;5005291;28;20714;-59
2023/07/26 13:16:51;;;;;;;8.38;4.43;;;23.90;54.10;;;;;;5028592;28;20196;-60
2023/07/26 13:19:19;;;;;;;8.20;4.18;;;24.00;54.10;;;;;;5033460;28;20307;-61
2023/07/26 13:21:46;;;;;;;38.58;33.75;;;24.00;54.20;;;;;;5035552;28;20215;-62
2023/07/26 13:24:16;;;;;;;10.18;7.10;;;24.10;54.30;;;;;;5066268;28;20304;-62
2023/07/26 13:26:43;;;;;;;9.73;6.20;;;24.10;54.10;;;;;;5108952;28;20193;-58
2023/07/26 13:29:11;;;;;;;7.85;5.35;;;24.20;53.90;;;;;;5107796;28;20581;-57
2023/07/26 13:31:40;;;;;;;6.72;4.65;;;24.20;53.90;;;;;;5108820;28;20225;-61
2023/07/26 13:34:08;;;;;;;6.95;4.05;;;24.20;53.80;;;;;;5113574;28;20288;-58